Time,TemperatureF,DewpointF,PressureIn,WindDirection,WindDirectionDegrees,WindSpeedMPH,WindSpeedGustMPH,Humidity,HourlyPrecipIn,Conditions,Clouds,dailyrainin,SoftwareType,DateUTC
2013-03-29 00:08:00,36.6,26.0,30.11,NNW,332,1.0,7.0,66,0.00,,,0.00,weatherlink.com 1.10,2013-03-29 04:08:00,
2013-03-29 00:23:00,36.4,26.0,30.11,NNE,22,4.0,9.0,67,0.00,,,0.00,weatherlink.com 1.10,2013-03-29 04:23:00,
2013-03-29 00:38:00,36.3,26.0,30.11,NNW,346,1.0,7.0,67,0.00,,,0.00,weatherlink.com 1.10,2013-03-29 04:38:00,
2013-03-29 00:53:00,36.1,26.0,30.11,North,9,3.0,9.0,68,0.00,,,0.00,weatherlink.com 1.10,2013-03-29 04:53:00,
2013-03-29 01:08:00,35.9,27.0,30.11,NNE,19,3.0,7.0,69,0.00,,,0.00,weatherlink.com 1.10,2013-03-29 05:08:00,
2013-03-29 01:23:00,35.5,27.0,30.11,North,360,4.0,6.0,70,0.00,,,0.00,weatherlink.com 1.10,2013-03-29 05:23:00,
2013-03-29 01:38:00,35.3,27.0,30.11,North,360,2.0,6.0,71,0.00,,,0.00,weatherlink.com 1.10,2013-03-29 05:38:00,
2013-03-29 01:53:00,34.8,27.0,30.11,North,11,4.0,5.0,72,0.00,,,0.00,weatherlink.com 1.10,2013-03-29 05:53:00,
2013-03-29 02:08:00,34.6,27.0,30.11,North,360,1.0,4.0,73,0.00,,,0.00,weatherlink.com 1.10,2013-03-29 06:08:00,
2013-03-29 02:23:00,34.1,27.0,30.11,NNW,338,2.0,5.0,74,0.00,,,0.00,weatherlink.com 1.10,2013-03-29 06:23:00,
2013-03-29 02:38:00,33.7,27.0,30.11,NNW,333,1.0,4.0,75,0.00,,,0.00,weatherlink.com 1.10,2013-03-29 06:38:00,
2013-03-29 02:53:00,33.3,27.0,30.11,NW,326,0.0,3.0,76,0.00,,,0.00,weatherlink.com 1.10,2013-03-29 06:53:00,
2013-03-29 03:08:00,32.6,26.0,30.11,North,355,0.0,3.0,77,0.00,,,0.00,weatherlink.com 1.10,2013-03-29 07:08:00,
2013-03-29 03:23:00,31.4,26.0,30.11,North,355,0.0,1.0,80,0.00,,,0.00,weatherlink.com 1.10,2013-03-29 07:23:00,
2013-03-29 03:38:00,30.1,26.0,30.11,NNW,339,1.0,3.0,83,0.00,,,0.00,weatherlink.com 1.10,2013-03-29 07:38:00,
2013-03-29 03:53:00,29.9,26.0,30.11,NNW,337,0.0,2.0,85,0.00,,,0.00,weatherlink.com 1.10,2013-03-29 07:53:00,
2013-03-29 04:08:00,29.6,26.0,30.11,NW,321,0.0,2.0,85,0.00,,,0.00,weatherlink.com 1.10,2013-03-29 08:08:00,
2013-03-29 04:23:00,29.7,26.0,30.11,NNW,327,0.0,3.0,85,0.00,,,0.00,weatherlink.com 1.10,2013-03-29 08:23:00,
2013-03-29 04:38:00,29.6,26.0,30.11,West,271,1.0,3.0,85,0.00,,,0.00,weatherlink.com 1.10,2013-03-29 08:38:00,
2013-03-29 04:53:00,29.8,26.0,30.11,NW,313,1.0,4.0,85,0.00,,,0.00,weatherlink.com 1.10,2013-03-29 08:53:00,
2013-03-29 05:08:00,29.6,26.0,30.11,NW,320,1.0,4.0,85,0.00,,,0.00,weatherlink.com 1.10,2013-03-29 09:08:00,
2013-03-29 05:23:00,29.3,25.0,30.11,West,279,2.0,3.0,85,0.00,,,0.00,weatherlink.com 1.10,2013-03-29 09:23:00,
2013-03-29 05:38:00,28.7,25.0,30.11,West,273,2.0,3.0,87,0.00,,,0.00,weatherlink.com 1.10,2013-03-29 09:38:00,
2013-03-29 05:54:00,28.8,25.0,30.11,NW,323,3.0,4.0,87,0.00,,,0.00,weatherlink.com 1.10,2013-03-29 09:54:00,
2013-03-29 06:09:00,28.8,25.0,30.11,NW,316,3.0,4.0,87,0.00,,,0.00,weatherlink.com 1.10,2013-03-29 10:09:00,
2013-03-29 06:24:00,28.6,25.0,30.11,NW,310,2.0,3.0,87,0.00,,,0.00,weatherlink.com 1.10,2013-03-29 10:24:00,
2013-03-29 06:39:00,28.4,25.0,30.11,NW,306,1.0,4.0,88,0.00,,,0.00,weatherlink.com 1.10,2013-03-29 10:39:00,
2013-03-29 06:54:00,28.4,25.0,30.12,NNW,332,1.0,4.0,88,0.00,,,0.00,weatherlink.com 1.10,2013-03-29 10:54:00,
2013-03-29 07:09:00,29.1,26.0,30.12,NW,323,3.0,5.0,87,0.00,,,0.00,weatherlink.com 1.10,2013-03-29 11:09:00,
2013-03-29 07:24:00,30.3,26.0,30.13,NNW,338,1.0,6.0,85,0.00,,,0.00,weatherlink.com 1.10,2013-03-29 11:24:00,
2013-03-29 07:39:00,31.6,27.0,30.12,NNW,340,2.0,5.0,83,0.00,,,0.00,weatherlink.com 1.10,2013-03-29 11:39:00,
2013-03-29 07:54:00,32.9,27.0,30.12,NNW,346,1.0,5.0,80,0.00,,,0.00,weatherlink.com 1.10,2013-03-29 11:54:00,
2013-03-29 08:09:00,34.0,28.0,30.12,NW,313,1.0,7.0,78,0.00,,,0.00,weatherlink.com 1.10,2013-03-29 12:09:00,
2013-03-29 08:24:00,35.1,28.0,30.13,North,350,6.0,8.0,75,0.00,,,0.00,weatherlink.com 1.10,2013-03-29 12:24:00,
2013-03-29 08:39:00,36.2,28.0,30.13,NW,309,3.0,11.0,72,0.00,,,0.00,weatherlink.com 1.10,2013-03-29 12:39:00,
2013-03-29 08:54:00,36.9,28.0,30.13,NW,318,2.0,11.0,70,0.00,,,0.00,weatherlink.com 1.10,2013-03-29 12:54:00,
2013-03-29 09:09:00,37.6,27.0,30.13,NNW,344,2.0,11.0,67,0.00,,,0.00,weatherlink.com 1.10,2013-03-29 13:09:00,
2013-03-29 09:24:00,38.2,27.0,30.12,SW,216,3.0,10.0,65,0.00,,,0.00,weatherlink.com 1.10,2013-03-29 13:24:00,
2013-03-29 09:39:00,39.2,27.0,30.12,NW,315,3.0,9.0,63,0.00,,,0.00,weatherlink.com 1.10,2013-03-29 13:39:00,
2013-03-29 09:54:00,40.1,27.0,30.11,North,5,5.0,12.0,61,0.00,,,0.00,weatherlink.com 1.10,2013-03-29 13:54:00,
2013-03-29 10:09:00,40.5,27.0,30.11,WNW,295,1.0,11.0,60,0.00,,,0.00,weatherlink.com 1.10,2013-03-29 14:09:00,
2013-03-29 10:24:00,41.1,27.0,30.11,NNW,333,2.0,12.0,58,0.00,,,0.00,weatherlink.com 1.10,2013-03-29 14:24:00,
2013-03-29 10:39:00,41.5,28.0,30.11,WNW,294,5.0,10.0,58,0.00,,,0.00,weatherlink.com 1.10,2013-03-29 14:39:00,
2013-03-29 10:54:00,42.2,28.0,30.10,NNE,19,3.0,10.0,57,0.00,,,0.00,weatherlink.com 1.10,2013-03-29 14:54:00,
2013-03-29 11:09:00,42.1,28.0,30.11,NNW,328,2.0,10.0,57,0.00,,,0.00,weatherlink.com 1.10,2013-03-29 15:09:00,
2013-03-29 11:24:00,42.4,27.0,30.11,NNE,22,3.0,12.0,54,0.00,,,0.00,weatherlink.com 1.10,2013-03-29 15:24:00,
2013-03-29 11:39:00,42.0,27.0,30.11,North,360,1.0,11.0,56,0.00,,,0.00,weatherlink.com 1.10,2013-03-29 15:39:00,
2013-03-29 11:54:00,41.6,28.0,30.10,NNW,333,3.0,9.0,58,0.00,,,0.00,weatherlink.com 1.10,2013-03-29 15:54:00,
2013-03-29 12:09:00,41.8,27.0,30.10,NNW,327,1.0,10.0,56,0.00,,,0.00,weatherlink.com 1.10,2013-03-29 16:09:00,
2013-03-29 12:24:00,41.6,27.0,30.10,East,91,1.0,8.0,57,0.00,,,0.00,weatherlink.com 1.10,2013-03-29 16:24:00,
2013-03-29 12:39:00,41.6,28.0,30.09,West,271,4.0,7.0,58,0.00,,,0.00,weatherlink.com 1.10,2013-03-29 16:39:00,
2013-03-29 12:54:00,41.3,27.0,30.09,NW,309,2.0,10.0,58,0.00,,,0.00,weatherlink.com 1.10,2013-03-29 16:54:00,
2013-03-29 13:09:00,40.9,27.0,30.09,North,360,4.0,8.0,59,0.00,,,0.00,weatherlink.com 1.10,2013-03-29 17:09:00,
2013-03-29 13:24:00,40.9,27.0,30.08,WNW,298,2.0,7.0,59,0.00,,,0.00,weatherlink.com 1.10,2013-03-29 17:24:00,
2013-03-29 13:39:00,41.1,28.0,30.08,NNW,345,1.0,11.0,59,0.00,,,0.00,weatherlink.com 1.10,2013-03-29 17:39:00,
2013-03-29 13:54:00,41.0,27.0,30.07,NW,325,3.0,9.0,57,0.00,,,0.00,weatherlink.com 1.10,2013-03-29 17:54:00,
2013-03-29 14:09:00,40.4,26.0,30.07,NW,304,6.0,12.0,57,0.00,,,0.00,weatherlink.com 1.10,2013-03-29 18:09:00,
2013-03-29 14:25:00,40.6,27.0,30.07,WNW,286,6.0,10.0,58,0.00,,,0.00,weatherlink.com 1.10,2013-03-29 18:25:00,
2013-03-29 14:40:00,40.1,27.0,30.07,WNW,282,3.0,9.0,59,0.00,,,0.00,weatherlink.com 1.10,2013-03-29 18:40:00,
2013-03-29 14:55:00,40.0,27.0,30.07,NNW,348,6.0,10.0,60,0.00,,,0.00,weatherlink.com 1.10,2013-03-29 18:55:00,
2013-03-29 15:10:00,39.4,27.0,30.07,NNW,333,5.0,10.0,62,0.00,,,0.00,weatherlink.com 1.10,2013-03-29 19:10:00,
2013-03-29 15:25:00,39.1,27.0,30.07,WNW,298,2.0,6.0,63,0.00,,,0.00,weatherlink.com 1.10,2013-03-29 19:25:00,
2013-03-29 15:41:00,39.0,27.0,30.06,WNW,296,8.0,11.0,63,0.00,,,0.00,weatherlink.com 1.10,2013-03-29 19:41:00,
2013-03-29 15:55:00,38.6,28.0,30.06,SW,236,2.0,11.0,65,0.00,,,0.00,weatherlink.com 1.10,2013-03-29 19:55:00,
2013-03-29 16:10:00,38.6,27.0,30.06,North,360,5.0,15.0,64,0.00,,,0.00,weatherlink.com 1.10,2013-03-29 20:10:00,
2013-03-29 16:25:00,38.4,28.0,30.06,North,349,5.0,12.0,66,0.00,,,0.00,weatherlink.com 1.10,2013-03-29 20:25:00,
2013-03-29 16:40:00,38.6,28.0,30.06,North,355,4.0,12.0,66,0.00,,,0.00,weatherlink.com 1.10,2013-03-29 20:40:00,
2013-03-29 16:55:00,38.9,28.0,30.06,NW,323,4.0,9.0,65,0.00,,,0.00,weatherlink.com 1.10,2013-03-29 20:55:00,
2013-03-29 17:10:00,38.2,28.0,30.06,North,355,6.0,12.0,68,0.00,,,0.00,weatherlink.com 1.10,2013-03-29 21:10:00,
2013-03-29 17:25:00,38.3,29.0,30.06,NNE,32,1.0,11.0,68,0.00,,,0.00,weatherlink.com 1.10,2013-03-29 21:25:00,
2013-03-29 17:40:00,38.4,28.0,30.06,NNW,331,5.0,12.0,67,0.00,,,0.00,weatherlink.com 1.10,2013-03-29 21:40:00,
2013-03-29 17:55:00,38.6,28.0,30.06,North,350,4.0,9.0,67,0.00,,,0.00,weatherlink.com 1.10,2013-03-29 21:55:00,
2013-03-29 18:10:00,38.3,28.0,30.06,NNW,344,4.0,9.0,67,0.00,,,0.00,weatherlink.com 1.10,2013-03-29 22:10:00,
2013-03-29 18:25:00,38.1,28.0,30.06,North,355,5.0,12.0,68,0.00,,,0.00,weatherlink.com 1.10,2013-03-29 22:25:00,
2013-03-29 18:40:00,38.0,28.0,30.07,NNW,328,5.0,12.0,68,0.00,,,0.00,weatherlink.com 1.10,2013-03-29 22:40:00,
2013-03-29 18:56:00,37.8,28.0,30.07,WNW,286,2.0,10.0,69,0.00,,,0.00,weatherlink.com 1.10,2013-03-29 22:56:00,
2013-03-29 19:10:00,37.6,28.0,30.07,North,351,7.0,9.0,69,0.00,,,0.00,weatherlink.com 1.10,2013-03-29 23:10:00,
2013-03-29 19:25:00,37.5,28.0,30.07,NNE,16,2.0,10.0,69,0.00,,,0.00,weatherlink.com 1.10,2013-03-29 23:25:00,
2013-03-29 19:40:00,37.3,28.0,30.07,NNW,329,3.0,7.0,70,0.00,,,0.00,weatherlink.com 1.10,2013-03-29 23:40:00,
2013-03-29 19:55:00,37.1,28.0,30.07,North,355,7.0,10.0,71,0.00,,,0.00,weatherlink.com 1.10,2013-03-29 23:55:00,
2013-03-29 20:10:00,37.0,29.0,30.08,NW,324,3.0,8.0,72,0.00,,,0.00,weatherlink.com 1.10,2013-03-30 00:10:00,
2013-03-29 20:25:00,36.7,29.0,30.08,NNW,333,6.0,7.0,74,0.00,,,0.00,weatherlink.com 1.10,2013-03-30 00:25:00,
2013-03-29 20:40:00,36.4,29.0,30.08,North,351,3.0,8.0,75,0.00,,,0.00,weatherlink.com 1.10,2013-03-30 00:40:00,
2013-03-29 20:55:00,36.0,29.0,30.09,NNW,334,4.0,7.0,76,0.00,,,0.00,weatherlink.com 1.10,2013-03-30 00:55:00,
2013-03-29 21:10:00,35.5,29.0,30.09,NNW,344,3.0,7.0,77,0.00,,,0.00,weatherlink.com 1.10,2013-03-30 01:10:00,
2013-03-29 21:25:00,35.3,29.0,30.10,NNE,32,1.0,7.0,77,0.00,,,0.00,weatherlink.com 1.10,2013-03-30 01:25:00,
2013-03-29 21:40:00,34.9,29.0,30.10,NW,321,2.0,7.0,78,0.00,,,0.00,weatherlink.com 1.10,2013-03-30 01:40:00,
2013-03-29 21:55:00,34.7,29.0,30.10,North,360,1.0,7.0,78,0.00,,,0.00,weatherlink.com 1.10,2013-03-30 01:55:00,
2013-03-29 22:10:00,34.4,29.0,30.11,NNW,345,5.0,6.0,79,0.00,,,0.00,weatherlink.com 1.10,2013-03-30 02:10:00,
2013-03-29 22:25:00,34.4,29.0,30.11,NW,313,0.0,6.0,79,0.00,,,0.00,weatherlink.com 1.10,2013-03-30 02:25:00,
2013-03-29 22:40:00,34.7,29.0,30.11,NW,322,2.0,5.0,78,0.00,,,0.00,weatherlink.com 1.10,2013-03-30 02:40:00,
2013-03-29 22:55:00,35.0,28.0,30.11,NNW,333,4.0,8.0,77,0.00,,,0.00,weatherlink.com 1.10,2013-03-30 02:55:00,
2013-03-29 23:10:00,35.0,29.0,30.11,NNE,20,3.0,6.0,78,0.00,,,0.00,weatherlink.com 1.10,2013-03-30 03:10:00,
2013-03-29 23:25:00,35.0,29.0,30.11,NNW,340,2.0,5.0,78,0.00,,,0.00,weatherlink.com 1.10,2013-03-30 03:25:00,
2013-03-29 23:40:00,35.1,29.0,30.11,North,11,1.0,7.0,78,0.00,,,0.00,weatherlink.com 1.10,2013-03-30 03:40:00,
2013-03-29 23:55:00,35.0,29.0,30.10,NNW,333,3.0,5.0,78,0.00,,,0.00,weatherlink.com 1.10,2013-03-30 03:55:00,